Portada
METAR-TAF:

METAR-TAF

Aeroports :

Ouargla, Algèria

latitud: 31-55N, longitud: 005-24E, altitud: 141 m

Observació

L'informe es va fer fa 20 minuts, a les 02:00 UTC
Vent calma
Temperatura 15°C
Humitat 44%
Pressió 1015 hPa
Visibilitat 10 km o més
Escasses núvols a una alçada de 4000 ft
Núvols disperses a una alçada de 10000 ft

METAR: DAUU 190200Z 00000KT 9999 FEW040 SCT100 15/03 Q1015

Hora: 03:20 (02:20 UTC)

Pronòstic

L'informe es va fer fa 3 hores i 20 minuts, a les 23:00 UTC
Pronòstic vàlid del 19 a les 00 UTC al 19 a les 09 UTC
Vent 2 kt amb direcció variable
Visibilitat 10 km o més
Escasses núvols a una alçada de 4000 ft
Núvols disperses a una alçada de 10000 ft

TAF: DAUU 182300Z 1900/1909 VRB02KT 9999 FEW040 SCT100

Observacions i pronòstics meteorològics de més de 4000 aeroports (METAR i TAF).

Les estacions disponibles són els punts grocs i vermells al mapa.

Posi el ratolí al punt desitjat per veure el nom de l'estació.

Feu clic per veure les observacions i els pronòstics meteorològics.

Per canviar el mapa: feu clic els botons verds amb una creu de color negre per apropar; al botó verd amb un guió per allunyar la imatge; o en les fletxes verdes per a mapes adjacents.


METAR-TAF: